createdAt,value
2018-05-11T00:00:47.404Z,99683.78
2018-05-11T00:03:14.964Z,99673.34
2018-05-11T00:05:42.558Z,99671.94
2018-05-11T00:08:10.185Z,99674.08
2018-05-11T00:10:37.729Z,99681.72
2018-05-11T00:13:05.339Z,99670.75
2018-05-11T00:15:32.864Z,99668.70
2018-05-11T00:18:00.413Z,99668.78
2018-05-11T00:20:27.984Z,99666.20
2018-05-11T00:22:55.577Z,99667.91
2018-05-11T00:25:23.206Z,99668.28
2018-05-11T00:27:50.841Z,99665.52
2018-05-11T00:30:18.354Z,99664.95
2018-05-11T00:32:45.933Z,99661.30
2018-05-11T00:35:13.461Z,99662.00
2018-05-11T00:37:41.105Z,99671.14
2018-05-11T00:40:08.770Z,99667.61
2018-05-11T00:42:36.441Z,99669.20
2018-05-11T00:45:03.965Z,99673.16
2018-05-11T00:47:31.539Z,99667.31
2018-05-11T00:49:59.107Z,99663.64
2018-05-11T00:52:26.777Z,99667.36
2018-05-11T00:54:54.328Z,99668.19
2018-05-11T00:57:22.003Z,99665.67
2018-05-11T00:59:49.557Z,99668.70
2018-05-11T01:02:17.135Z,99671.09
2018-05-11T01:04:44.656Z,99672.33
2018-05-11T01:07:12.331Z,99667.58
2018-05-11T01:09:39.891Z,99665.09
2018-05-11T01:12:07.561Z,99666.64
2018-05-11T01:14:35.124Z,99662.55
2018-05-11T01:17:02.783Z,99665.16
2018-05-11T01:19:30.334Z,99659.45
2018-05-11T01:21:57.897Z,99658.17
2018-05-11T01:24:25.568Z,99657.59
2018-05-11T01:26:53.229Z,99659.70
2018-05-11T01:29:20.883Z,99657.56
2018-05-11T01:31:48.463Z,99655.76
2018-05-11T01:34:15.997Z,99654.57
2018-05-11T01:36:43.561Z,99654.58
2018-05-11T01:39:11.117Z,99655.60
2018-05-11T01:41:38.789Z,99658.47
2018-05-11T01:44:06.346Z,99648.06
2018-05-11T01:46:34.001Z,99652.41
2018-05-11T01:49:01.522Z,99648.17
2018-05-11T01:51:29.118Z,99655.12
2018-05-11T01:53:56.659Z,99647.14
2018-05-11T01:56:24.250Z,99652.15
2018-05-11T01:58:51.909Z,99650.86
2018-05-11T02:01:19.566Z,99649.94
2018-05-11T02:03:47.225Z,99645.47
2018-05-11T02:06:14.816Z,99650.07
2018-05-11T02:08:42.447Z,99651.02
2018-05-11T02:11:09.973Z,99656.20
2018-05-11T02:13:37.522Z,99659.28
2018-05-11T02:16:05.126Z,99655.95
2018-05-11T02:18:32.807Z,99653.11
2018-05-11T02:21:00.346Z,99658.13
2018-05-11T02:23:27.983Z,99638.00
2018-05-11T02:25:55.616Z,99654.64
2018-05-11T02:28:23.237Z,99655.18
2018-05-11T02:30:50.762Z,99646.31
2018-05-11T02:33:18.348Z,99647.26
2018-05-11T02:35:45.909Z,99650.91
2018-05-11T02:38:13.462Z,99650.95
2018-05-11T02:40:41.028Z,99647.05
2018-05-11T02:43:08.662Z,99650.67
2018-05-11T02:45:36.259Z,99651.44
2018-05-11T02:48:03.911Z,99644.45
2018-05-11T02:50:31.495Z,99639.73
2018-05-11T02:52:59.006Z,99634.30
2018-05-11T02:55:26.534Z,99636.78
2018-05-11T02:57:54.078Z,99633.75
2018-05-11T03:00:21.716Z,99633.13
2018-05-11T03:02:49.346Z,99637.94
2018-05-11T03:05:16.931Z,99649.52
2018-05-11T03:07:44.495Z,99644.25
2018-05-11T03:10:12.023Z,99644.55
2018-05-11T03:12:39.574Z,99641.13
2018-05-11T03:15:07.103Z,99640.14
2018-05-11T03:17:34.732Z,99637.19
2018-05-11T03:20:02.254Z,99643.86
2018-05-11T03:22:29.847Z,99642.66
2018-05-11T03:24:58.240Z,99646.61
2018-05-11T03:27:25.891Z,99644.16
2018-05-11T03:29:53.465Z,99650.97
2018-05-11T03:32:21.006Z,99653.31
2018-05-11T03:34:48.570Z,99644.68
2018-05-11T03:37:16.094Z,99645.27
2018-05-11T03:39:43.673Z,99648.47
2018-05-11T03:42:11.252Z,99653.80
2018-05-11T03:44:38.883Z,99641.74
2018-05-11T03:47:06.455Z,99649.88
2018-05-11T03:49:34.026Z,99654.60
2018-05-11T03:52:01.561Z,99651.84
2018-05-11T03:54:29.142Z,99659.86
2018-05-11T03:56:56.716Z,99652.67
2018-05-11T03:59:24.369Z,99656.25
2018-05-11T04:02:03.716Z,99657.73
2018-05-11T04:04:43.249Z,99654.21
2018-05-11T04:07:22.698Z,99666.80
2018-05-11T04:09:50.344Z,99664.00
2018-05-11T04:12:17.879Z,99668.27
2018-05-11T04:14:45.462Z,99671.54
2018-05-11T04:17:13.053Z,99670.40
2018-05-11T04:19:40.686Z,99673.99
2018-05-11T04:22:08.242Z,99668.66
2018-05-11T04:24:35.789Z,99671.77
2018-05-11T04:27:03.313Z,99670.43
2018-05-11T04:29:30.870Z,99682.38
2018-05-11T04:31:58.491Z,99676.13
2018-05-11T04:34:26.078Z,99678.27
2018-05-11T04:36:53.678Z,99673.11
2018-05-11T04:39:21.365Z,99673.13
2018-05-11T04:41:49.027Z,99676.92
2018-05-11T04:44:16.588Z,99674.53
2018-05-11T04:46:44.133Z,99684.64
2018-05-11T04:49:11.664Z,99682.66
2018-05-11T04:51:39.215Z,99684.70
2018-05-11T04:54:06.769Z,99687.27
2018-05-11T04:56:34.346Z,99685.62
2018-05-11T04:59:01.871Z,99686.67
2018-05-11T05:01:29.897Z,99691.28
2018-05-11T05:03:57.478Z,99696.66
2018-05-11T05:06:25.077Z,99685.64
2018-05-11T05:08:52.639Z,99680.42
2018-05-11T05:11:20.263Z,99680.00
2018-05-11T05:13:47.784Z,99675.80
2018-05-11T05:16:15.668Z,99677.75
2018-05-11T05:18:43.240Z,99684.14
2018-05-11T05:21:10.902Z,99683.28
2018-05-11T05:23:38.461Z,99676.15
2018-05-11T05:26:06.045Z,99668.60
2018-05-11T05:28:33.579Z,99671.76
2018-05-11T05:31:01.118Z,99667.06
2018-05-11T05:33:28.702Z,99671.84
2018-05-11T05:35:56.257Z,99664.97
2018-05-11T05:38:23.819Z,99676.36
2018-05-11T05:40:51.409Z,99678.97
2018-05-11T05:43:18.986Z,99684.20
2018-05-11T05:45:46.669Z,99682.18
2018-05-11T05:48:14.164Z,99679.47
2018-05-11T05:50:41.741Z,99674.04
2018-05-11T05:53:09.269Z,99676.46
2018-05-11T05:55:37.148Z,99681.44
2018-05-11T05:58:04.704Z,99675.05
2018-05-11T06:00:32.378Z,99674.13
2018-05-11T06:03:00.079Z,99673.23
2018-05-11T06:05:27.691Z,99665.16
2018-05-11T06:07:55.261Z,99669.26
2018-05-11T06:10:22.809Z,99662.69
2018-05-11T06:12:50.483Z,99666.10
2018-05-11T06:15:18.140Z,99674.66
2018-05-11T06:17:45.804Z,99669.96
2018-05-11T06:20:13.345Z,99664.32
2018-05-11T06:22:40.896Z,99668.73
2018-05-11T06:25:08.425Z,99674.59
2018-05-11T06:27:36.045Z,99666.37
2018-05-11T06:30:03.707Z,99670.47
2018-05-11T06:32:31.358Z,99664.86
2018-05-11T06:35:00.985Z,99673.44
2018-05-11T06:37:28.625Z,99664.88
2018-05-11T06:39:56.162Z,99666.41
2018-05-11T06:42:23.737Z,99672.38
2018-05-11T06:44:51.265Z,99669.45
2018-05-11T06:47:19.274Z,99664.45
2018-05-11T06:49:46.822Z,99663.94
2018-05-11T06:52:14.395Z,99671.04
2018-05-11T06:54:42.069Z,99671.11
2018-05-11T06:57:09.628Z,99660.03
2018-05-11T06:59:37.281Z,99655.03
2018-05-11T07:02:06.486Z,99666.25
2018-05-11T07:04:34.284Z,99660.20
2018-05-11T07:07:01.862Z,99662.61
2018-05-11T07:09:29.420Z,99654.77
2018-05-11T07:11:57.018Z,99656.45
2018-05-11T07:14:24.562Z,99657.81
2018-05-11T07:16:52.447Z,99651.32
2018-05-11T07:19:20.155Z,99651.32
2018-05-11T07:21:47.999Z,99658.97
2018-05-11T07:24:15.526Z,99649.58
2018-05-11T07:26:43.103Z,99655.09
2018-05-11T07:29:10.655Z,99651.70
2018-05-11T07:31:39.359Z,99642.87
2018-05-11T07:34:06.986Z,99648.72
2018-05-11T07:36:34.561Z,99642.27
2018-05-11T07:39:03.041Z,99646.54
2018-05-11T07:41:31.471Z,99644.38
2018-05-11T07:43:59.018Z,99639.31
2018-05-11T07:46:27.236Z,99632.93
2018-05-11T07:48:54.802Z,99633.91
2018-05-11T07:51:22.376Z,99638.62
2018-05-11T07:53:50.041Z,99637.22
2018-05-11T07:56:18.730Z,99634.45
2018-05-11T07:58:46.379Z,99627.16
2018-05-11T08:01:13.944Z,99626.91
2018-05-11T08:03:41.606Z,99628.35
2018-05-11T08:06:09.158Z,99627.05
2018-05-11T08:08:36.741Z,99615.88
2018-05-11T08:11:05.104Z,99616.70
2018-05-11T08:13:32.767Z,99612.86
2018-05-11T08:16:00.326Z,99605.63
2018-05-11T08:18:28.001Z,99610.93
2018-05-11T08:20:55.552Z,99617.57
2018-05-11T08:23:23.211Z,99604.08
2018-05-11T08:25:50.756Z,99607.97
2018-05-11T08:28:18.339Z,99608.41
2018-05-11T08:30:45.887Z,99601.75
2018-05-11T08:33:13.462Z,99605.28
2018-05-11T08:35:41.017Z,99596.77
2018-05-11T08:38:08.573Z,99596.50
2018-05-11T08:40:36.127Z,99601.30
2018-05-11T08:43:03.729Z,99595.28
2018-05-11T08:45:31.275Z,99594.75
2018-05-11T08:47:58.900Z,99587.33
2018-05-11T08:50:26.434Z,99591.98
2018-05-11T08:52:54.033Z,99581.69
2018-05-11T08:55:21.590Z,99586.03
2018-05-11T08:57:49.176Z,99578.80
2018-05-11T09:00:16.808Z,99576.09
2018-05-11T09:02:44.685Z,99581.83
2018-05-11T09:05:13.158Z,99572.52
2018-05-11T09:07:41.122Z,99578.25
2018-05-11T09:10:09.971Z,99573.07
2018-05-11T09:12:37.680Z,99580.42
2018-05-11T09:15:05.233Z,99573.28
2018-05-11T09:17:32.804Z,99566.16
2018-05-11T09:20:00.657Z,99570.27
2018-05-11T09:22:28.331Z,99558.66
2018-05-11T09:24:56.063Z,99558.11
2018-05-11T09:27:23.864Z,99559.42
2018-05-11T09:29:51.575Z,99557.80
2018-05-11T09:32:19.837Z,99557.11
2018-05-11T09:34:47.398Z,99550.05
2018-05-11T09:37:15.374Z,99550.91
2018-05-11T09:39:43.317Z,99551.05
2018-05-11T09:42:11.229Z,99543.97
2018-05-11T09:44:38.782Z,99538.53
2018-05-11T09:47:07.334Z,99544.99
2018-05-11T09:49:38.334Z,99545.91
2018-05-11T09:52:06.214Z,99534.86
2018-05-11T09:54:34.337Z,99541.23
2018-05-11T09:57:02.351Z,99534.50
2018-05-11T09:59:30.066Z,99537.95
2018-05-11T10:01:57.889Z,99535.00
2018-05-11T10:04:25.762Z,99529.88
2018-05-11T10:06:53.297Z,99523.82
2018-05-11T10:09:21.152Z,99523.39
2018-05-11T10:11:48.729Z,99522.56
2018-05-11T10:14:17.316Z,99521.84
2018-05-11T10:16:44.960Z,99512.58
2018-05-11T10:19:13.025Z,99514.27
2018-05-11T10:21:41.034Z,99509.37
2018-05-11T10:24:08.965Z,99509.19
2018-05-11T10:26:36.761Z,99504.95
2018-05-11T10:29:04.750Z,99508.27
2018-05-11T10:31:33.069Z,99508.86
2018-05-11T10:34:00.685Z,99505.39
2018-05-11T10:36:28.271Z,99510.75
2018-05-11T10:38:55.881Z,99505.33
2018-05-11T10:41:23.545Z,99509.28
2018-05-11T10:43:51.681Z,99502.70
2018-05-11T10:46:19.287Z,99498.00
2018-05-11T10:48:46.905Z,99494.59
2018-05-11T10:51:17.434Z,99492.90
2018-05-11T10:53:45.443Z,99487.54
2018-05-11T10:56:13.098Z,99485.56
2018-05-11T10:58:40.731Z,99495.41
2018-05-11T11:01:08.273Z,99488.81
2018-05-11T11:03:35.827Z,99476.06
2018-05-11T11:06:03.400Z,99478.27
2018-05-11T11:08:30.949Z,99474.31
2018-05-11T11:10:58.559Z,99475.20
2018-05-11T11:13:26.108Z,99474.58
2018-05-11T11:15:55.456Z,99466.93
2018-05-11T11:18:22.993Z,99470.32
2018-05-11T11:20:50.538Z,99456.23
2018-05-11T11:23:18.066Z,99460.41
2018-05-11T11:25:46.046Z,99462.21
2018-05-11T11:28:13.620Z,99461.19
2018-05-11T11:30:41.922Z,99459.55
2018-05-11T11:33:09.450Z,99462.27
2018-05-11T11:35:40.240Z,99461.14
2018-05-11T11:38:08.253Z,99461.28
2018-05-11T11:40:35.833Z,99455.48
2018-05-11T11:43:03.357Z,99448.22
2018-05-11T11:45:31.336Z,99439.64
2018-05-11T11:47:58.941Z,99451.25
2018-05-11T11:50:26.513Z,99448.31
2018-05-11T11:52:54.044Z,99444.44
2018-05-11T11:55:21.598Z,99453.08
2018-05-11T11:57:49.156Z,99445.20
2018-05-11T12:00:16.814Z,99446.88
2018-05-11T12:02:44.355Z,99442.27
2018-05-11T12:05:11.904Z,99441.68
2018-05-11T12:07:39.502Z,99443.31
2018-05-11T12:10:07.059Z,99434.55
2018-05-11T12:12:34.869Z,99430.92
2018-05-11T12:15:02.517Z,99426.98
2018-05-11T12:17:30.071Z,99430.00
2018-05-11T12:19:57.701Z,99427.87
2018-05-11T12:22:25.274Z,99419.45
2018-05-11T12:24:52.823Z,99425.52
2018-05-11T12:27:20.375Z,99420.75
2018-05-11T12:29:48.251Z,99421.77
2018-05-11T12:32:15.806Z,99413.03
2018-05-11T12:34:43.330Z,99418.98
2018-05-11T12:37:10.881Z,99415.73
2018-05-11T12:39:38.588Z,99413.38
2018-05-11T12:42:06.252Z,99412.68
2018-05-11T12:44:33.814Z,99417.08
2018-05-11T12:47:01.364Z,99406.50
2018-05-11T12:49:28.926Z,99403.64
2018-05-11T12:51:56.505Z,99401.95
2018-05-11T12:54:24.055Z,99406.94
2018-05-11T12:56:51.707Z,99405.37
2018-05-11T12:59:19.267Z,99403.83
2018-05-11T13:01:46.934Z,99394.05
2018-05-11T13:04:14.487Z,99399.67
2018-05-11T13:06:42.162Z,99391.25
2018-05-11T13:09:09.714Z,99393.84
2018-05-11T13:11:37.372Z,99385.13
2018-05-11T13:14:04.931Z,99391.56
2018-05-11T13:16:32.445Z,99384.97
2018-05-11T13:19:00.051Z,99383.48
2018-05-11T13:21:27.619Z,99393.33
2018-05-11T13:23:55.276Z,99386.01
2018-05-11T13:26:22.888Z,99382.30
2018-05-11T13:28:50.496Z,99378.16
2018-05-11T13:31:18.150Z,99379.05
2018-05-11T13:33:45.730Z,99376.20
2018-05-11T13:36:13.282Z,99373.77
2018-05-11T13:38:40.843Z,99370.02
2018-05-11T13:41:08.389Z,99373.34
2018-05-11T13:43:35.942Z,99371.31
2018-05-11T13:46:03.512Z,99366.98
2018-05-11T13:48:31.278Z,99376.83
2018-05-11T13:50:58.811Z,99372.96
2018-05-11T13:53:26.403Z,99371.73
2018-05-11T13:55:53.956Z,99366.84
2018-05-11T13:58:21.526Z,99360.61
2018-05-11T14:00:49.162Z,99364.05
2018-05-11T14:03:16.739Z,99364.04
2018-05-11T14:05:44.270Z,99360.45
2018-05-11T14:08:11.833Z,99357.37
2018-05-11T14:10:39.419Z,99355.31
2018-05-11T14:13:06.998Z,99353.28
2018-05-11T14:15:34.525Z,99352.20
2018-05-11T14:18:02.076Z,99346.59
2018-05-11T14:20:29.653Z,99352.53
2018-05-11T14:22:57.206Z,99351.23
2018-05-11T14:25:24.782Z,99343.41
2018-05-11T14:27:52.437Z,99349.44
2018-05-11T14:30:19.962Z,99338.52
2018-05-11T14:32:47.488Z,99346.84
2018-05-11T14:35:15.115Z,99340.11
2018-05-11T14:37:42.642Z,99339.05
2018-05-11T14:40:10.247Z,99342.76
2018-05-11T14:42:37.801Z,99336.11
2018-05-11T14:45:05.454Z,99338.17
2018-05-11T14:47:33.013Z,99333.43
2018-05-11T14:50:00.769Z,99330.87
2018-05-11T14:52:28.230Z,99328.25
2018-05-11T14:54:55.810Z,99334.81
2018-05-11T14:57:24.210Z,99321.06
2018-05-11T14:59:51.834Z,99332.03
2018-05-11T15:02:19.393Z,99319.01
2018-05-11T15:04:47.642Z,99322.83
2018-05-11T15:07:15.231Z,99314.71
2018-05-11T15:09:42.799Z,99321.50
2018-05-11T15:12:10.349Z,99312.82
2018-05-11T15:14:37.908Z,99314.45
2018-05-11T15:17:05.454Z,99316.97
2018-05-11T15:19:33.031Z,99303.93
2018-05-11T15:22:00.588Z,99309.00
2018-05-11T15:24:28.249Z,99307.41
2018-05-11T15:26:55.785Z,99307.23
2018-05-11T15:29:23.470Z,99300.30
2018-05-11T15:31:50.993Z,99297.84
2018-05-11T15:34:18.542Z,99292.47
2018-05-11T15:36:46.092Z,99297.21
2018-05-11T15:39:13.711Z,99294.64
2018-05-11T15:41:41.270Z,99296.23
2018-05-11T15:44:08.824Z,99288.61
2018-05-11T15:46:36.377Z,99287.22
2018-05-11T15:49:03.958Z,99283.57
2018-05-11T15:51:31.509Z,99274.05
2018-05-11T15:53:59.034Z,99281.60
2018-05-11T15:56:26.628Z,99276.14
2018-05-11T15:58:54.167Z,99276.85
2018-05-11T16:01:21.717Z,99276.69
2018-05-11T16:03:49.242Z,99270.58
2018-05-11T16:06:17.878Z,99274.09
2018-05-11T16:08:45.550Z,99270.69
2018-05-11T16:11:13.126Z,99273.03
2018-05-11T16:13:40.653Z,99276.59
2018-05-11T16:16:08.331Z,99272.95
2018-05-11T16:18:35.883Z,99269.41
2018-05-11T16:21:03.466Z,99275.33
2018-05-11T16:23:30.988Z,99266.75
2018-05-11T16:25:58.672Z,99271.67
2018-05-11T16:28:26.295Z,99270.84
2018-05-11T16:30:53.846Z,99264.89
2018-05-11T16:33:21.451Z,99256.47
2018-05-11T16:35:49.024Z,99261.36
2018-05-11T16:38:16.569Z,99264.92
2018-05-11T16:40:44.156Z,99259.70
2018-05-11T16:43:11.678Z,99262.06
2018-05-11T16:45:39.281Z,99254.69
2018-05-11T16:48:06.968Z,99262.25
2018-05-11T16:50:34.572Z,99256.86
2018-05-11T16:53:02.163Z,99252.51
2018-05-11T16:55:29.794Z,99249.05
2018-05-11T16:57:57.456Z,99255.87
2018-05-11T17:00:25.122Z,99249.56
2018-05-11T17:02:52.780Z,99249.78
2018-05-11T17:05:20.324Z,99243.61
2018-05-11T17:07:48.106Z,99251.12
2018-05-11T17:10:15.774Z,99238.08
2018-05-11T17:12:43.432Z,99247.37
2018-05-11T17:15:10.986Z,99244.97
2018-05-11T17:17:38.649Z,99241.88
2018-05-11T17:20:06.207Z,99243.06
2018-05-11T17:22:33.797Z,99242.16
2018-05-11T17:25:01.438Z,99247.97
2018-05-11T17:27:29.021Z,99243.23
2018-05-11T17:29:56.574Z,99250.31
2018-05-11T17:32:24.211Z,99253.41
2018-05-11T17:34:51.869Z,99257.51
2018-05-11T17:37:19.405Z,99255.56
2018-05-11T17:39:48.233Z,99253.58
2018-05-11T17:42:15.985Z,99259.56
2018-05-11T17:44:43.660Z,99258.78
2018-05-11T17:47:11.239Z,99263.27
2018-05-11T17:49:38.766Z,99259.42
2018-05-11T17:52:06.324Z,99258.58
2018-05-11T17:54:33.886Z,99254.49
2018-05-11T17:57:01.503Z,99254.27
2018-05-11T17:59:29.124Z,99260.63
2018-05-11T18:01:56.651Z,99265.58
2018-05-11T18:04:24.331Z,99268.02
2018-05-11T18:06:51.886Z,99264.44
2018-05-11T18:09:19.549Z,99261.66
2018-05-11T18:11:47.109Z,99264.19
2018-05-11T18:14:14.662Z,99271.78
2018-05-11T18:16:42.512Z,99267.55
2018-05-11T18:19:10.392Z,99263.67
2018-05-11T18:21:37.918Z,99265.02
2018-05-11T18:24:05.473Z,99267.47
2018-05-11T18:26:32.994Z,99263.84
2018-05-11T18:29:01.100Z,99266.96
2018-05-11T18:31:28.712Z,99260.75
2018-05-11T18:33:56.629Z,99258.45
2018-05-11T18:36:24.157Z,99263.67
2018-05-11T18:38:51.813Z,99257.08
2018-05-11T18:41:19.464Z,99245.37
2018-05-11T18:43:46.993Z,99260.59
2018-05-11T18:46:14.580Z,99265.27
2018-05-11T18:48:42.118Z,99264.30
2018-05-11T18:51:09.670Z,99262.70
2018-05-11T18:53:37.440Z,99267.52
2018-05-11T18:56:05.010Z,99268.34
2018-05-11T18:58:32.477Z,99276.51
2018-05-11T19:01:00.026Z,99273.77
2018-05-11T19:03:27.600Z,99277.43
2018-05-11T19:05:55.260Z,99282.31
2018-05-11T19:08:22.834Z,99281.31
2018-05-11T19:10:50.390Z,99286.94
2018-05-11T19:13:17.917Z,99287.28
2018-05-11T19:15:45.496Z,99294.78
2018-05-11T19:18:13.018Z,99303.70
2018-05-11T19:20:40.618Z,99305.17
2018-05-11T19:23:08.178Z,99303.16
2018-05-11T19:25:35.745Z,99305.45
2018-05-11T19:28:03.304Z,99320.95
2018-05-11T19:30:30.881Z,99322.84
2018-05-11T19:32:58.415Z,99317.60
2018-05-11T19:35:26.080Z,99323.26
2018-05-11T19:38:00.766Z,99319.45
2018-05-11T19:40:28.741Z,99317.70
2018-05-11T19:42:56.266Z,99322.53
2018-05-11T19:45:23.821Z,99324.77
2018-05-11T19:47:51.351Z,99326.92
2018-05-11T19:50:19.675Z,99325.72
2018-05-11T19:52:47.289Z,99321.63
2018-05-11T19:55:14.951Z,99321.73
2018-05-11T19:57:42.481Z,99322.06
2018-05-11T20:00:10.062Z,99329.09
2018-05-11T20:02:37.637Z,99331.17
2018-05-11T20:05:05.292Z,99335.70
2018-05-11T20:07:32.850Z,99335.18
2018-05-11T20:10:00.610Z,99341.52
2018-05-11T20:12:28.175Z,99337.80
2018-05-11T20:14:55.747Z,99335.48
2018-05-11T20:17:23.301Z,99338.87
2018-05-11T20:19:50.959Z,99336.97
2018-05-11T20:22:18.582Z,99337.47
2018-05-11T20:24:46.108Z,99342.16
2018-05-11T20:27:13.653Z,99341.91
2018-05-11T20:29:41.204Z,99341.23
2018-05-11T20:32:08.862Z,99339.98
2018-05-11T20:34:36.413Z,99344.30
2018-05-11T20:37:04.078Z,99330.94
2018-05-11T20:39:31.621Z,99333.09
2018-05-11T20:41:59.299Z,99335.27
2018-05-11T20:44:26.867Z,99342.85
2018-05-11T20:46:54.450Z,99342.02
2018-05-11T20:49:22.802Z,99345.07
2018-05-11T20:51:50.460Z,99345.42
2018-05-11T20:54:18.349Z,99348.35
2018-05-11T20:56:46.134Z,99341.38
2018-05-11T20:59:13.737Z,99343.64
2018-05-11T21:01:43.893Z,99351.08
2018-05-11T21:04:11.441Z,99353.58
2018-05-11T21:06:39.094Z,99347.16
2018-05-11T21:09:06.644Z,99346.53
2018-05-11T21:11:34.397Z,99349.06
2018-05-11T21:14:02.054Z,99347.31
2018-05-11T21:16:29.622Z,99348.84
2018-05-11T21:18:57.152Z,99352.26
2018-05-11T21:21:24.958Z,99350.42
2018-05-11T21:23:52.509Z,99347.39
2018-05-11T21:26:20.130Z,99358.09
2018-05-11T21:28:47.666Z,99357.80
2018-05-11T21:31:15.270Z,99356.28
2018-05-11T21:33:42.816Z,99359.23
2018-05-11T21:36:10.421Z,99354.61
2018-05-11T21:38:37.949Z,99359.55
2018-05-11T21:41:08.764Z,99352.99
2018-05-11T21:43:39.291Z,99361.36
2018-05-11T21:46:06.983Z,99355.27
2018-05-11T21:48:34.576Z,99366.02
2018-05-11T21:51:02.237Z,99358.48
2018-05-11T21:53:29.888Z,99361.66
2018-05-11T21:56:01.868Z,99365.55
2018-05-11T21:58:30.466Z,99363.18
2018-05-11T22:00:58.920Z,99361.78
2018-05-11T22:03:26.492Z,99365.77
2018-05-11T22:05:54.363Z,99363.08
2018-05-11T22:08:23.034Z,99363.91
2018-05-11T22:10:50.703Z,99370.52
2018-05-11T22:13:19.115Z,99366.28
2018-05-11T22:15:46.836Z,99360.28
2018-05-11T22:18:14.930Z,99369.50
2018-05-11T22:20:43.604Z,99362.03
2018-05-11T22:23:11.864Z,99366.64
2018-05-11T22:25:42.227Z,99362.19
2018-05-11T22:28:10.593Z,99365.01
2018-05-11T22:30:38.337Z,99366.64
2018-05-11T22:33:07.037Z,99365.19
2018-05-11T22:35:35.189Z,99363.08
2018-05-11T22:38:03.887Z,99360.30
2018-05-11T22:40:31.851Z,99365.22
2018-05-11T22:42:59.431Z,99364.09
2018-05-11T22:45:27.097Z,99365.83
2018-05-11T22:47:54.838Z,99365.36
2018-05-11T22:50:22.806Z,99370.78
2018-05-11T22:52:50.570Z,99369.20
2018-05-11T22:55:18.241Z,99369.23
2018-05-11T22:57:46.258Z,99369.52
2018-05-11T23:00:18.944Z,99364.67
2018-05-11T23:02:47.158Z,99360.56
2018-05-11T23:05:15.979Z,99358.95
2018-05-11T23:07:43.550Z,99366.95
2018-05-11T23:10:11.122Z,99357.95
2018-05-11T23:12:38.735Z,99360.56
2018-05-11T23:15:06.285Z,99355.73
2018-05-11T23:17:33.838Z,99358.44
2018-05-11T23:20:01.742Z,99362.38
2018-05-11T23:22:29.373Z,99352.75
2018-05-11T23:24:57.865Z,99355.00
2018-05-11T23:27:25.439Z,99350.87
2018-05-11T23:29:52.971Z,99357.86
2018-05-11T23:32:20.636Z,99358.69
2018-05-11T23:34:48.196Z,99353.87
2018-05-11T23:37:15.858Z,99356.06
2018-05-11T23:39:43.429Z,99353.00
2018-05-11T23:42:10.957Z,99355.81
2018-05-11T23:44:38.509Z,99351.81
2018-05-11T23:47:06.038Z,99350.94
2018-05-11T23:49:33.656Z,99345.89
2018-05-11T23:52:01.215Z,99352.02
2018-05-11T23:54:28.888Z,99351.22
2018-05-11T23:56:56.445Z,99342.70
2018-05-11T23:59:24.101Z,99351.13
